sensor_id;sensor_type;location;lat;lon;timestamp;P1;durP1;ratioP1;P2;durP2;ratioP2
81627;SDS011;71036;51.102;6.514;2024-03-22T00:00:28;31.63;;;11.50;;
81627;SDS011;71036;51.102;6.514;2024-03-22T00:02:53;30.57;;;14.17;;
81627;SDS011;71036;51.102;6.514;2024-03-22T00:05:18;36.80;;;10.87;;
81627;SDS011;71036;51.102;6.514;2024-03-22T00:07:46;29.97;;;12.83;;
81627;SDS011;71036;51.102;6.514;2024-03-22T00:10:11;29.07;;;12.93;;
81627;SDS011;71036;51.102;6.514;2024-03-22T00:12:36;40.93;;;14.13;;
81627;SDS011;71036;51.102;6.514;2024-03-22T00:15:02;34.43;;;12.60;;
81627;SDS011;71036;51.102;6.514;2024-03-22T00:17:27;34.27;;;12.87;;
81627;SDS011;71036;51.102;6.514;2024-03-22T00:19:52;36.37;;;13.20;;
81627;SDS011;71036;51.102;6.514;2024-03-22T00:22:18;35.07;;;11.47;;
81627;SDS011;71036;51.102;6.514;2024-03-22T00:24:43;25.43;;;10.87;;
81627;SDS011;71036;51.102;6.514;2024-03-22T00:27:08;30.77;;;11.73;;
81627;SDS011;71036;51.102;6.514;2024-03-22T00:29:33;29.73;;;11.67;;
81627;SDS011;71036;51.102;6.514;2024-03-22T00:31:59;34.37;;;12.37;;
81627;SDS011;71036;51.102;6.514;2024-03-22T00:34:25;35.23;;;12.63;;
81627;SDS011;71036;51.102;6.514;2024-03-22T00:36:50;42.07;;;12.80;;
81627;SDS011;71036;51.102;6.514;2024-03-22T00:39:16;33.63;;;12.60;;
81627;SDS011;71036;51.102;6.514;2024-03-22T00:41:41;29.43;;;11.80;;
81627;SDS011;71036;51.102;6.514;2024-03-22T00:44:07;31.53;;;11.27;;
81627;SDS011;71036;51.102;6.514;2024-03-22T00:46:32;51.13;;;13.63;;
81627;SDS011;71036;51.102;6.514;2024-03-22T00:48:57;36.93;;;12.73;;
81627;SDS011;71036;51.102;6.514;2024-03-22T00:51:23;34.77;;;13.30;;
81627;SDS011;71036;51.102;6.514;2024-03-22T00:53:50;35.13;;;13.73;;
81627;SDS011;71036;51.102;6.514;2024-03-22T00:56:15;38.23;;;11.43;;
81627;SDS011;71036;51.102;6.514;2024-03-22T00:58:40;32.20;;;12.80;;
81627;SDS011;71036;51.102;6.514;2024-03-22T01:01:06;32.40;;;12.90;;
81627;SDS011;71036;51.102;6.514;2024-03-22T01:03:31;31.73;;;12.77;;
81627;SDS011;71036;51.102;6.514;2024-03-22T01:05:56;27.50;;;12.80;;
81627;SDS011;71036;51.102;6.514;2024-03-22T01:08:22;34.40;;;12.47;;
81627;SDS011;71036;51.102;6.514;2024-03-22T01:10:47;29.10;;;12.10;;
81627;SDS011;71036;51.102;6.514;2024-03-22T01:13:13;32.20;;;11.73;;
81627;SDS011;71036;51.102;6.514;2024-03-22T01:15:38;31.63;;;12.60;;
81627;SDS011;71036;51.102;6.514;2024-03-22T01:18:03;31.00;;;11.70;;
81627;SDS011;71036;51.102;6.514;2024-03-22T01:20:29;32.60;;;12.67;;
81627;SDS011;71036;51.102;6.514;2024-03-22T01:22:55;34.17;;;12.70;;
81627;SDS011;71036;51.102;6.514;2024-03-22T01:25:20;38.43;;;13.77;;
81627;SDS011;71036;51.102;6.514;2024-03-22T01:27:45;32.53;;;12.80;;
81627;SDS011;71036;51.102;6.514;2024-03-22T01:30:11;42.57;;;13.50;;
81627;SDS011;71036;51.102;6.514;2024-03-22T01:32:36;30.00;;;11.03;;
81627;SDS011;71036;51.102;6.514;2024-03-22T01:35:02;41.10;;;13.23;;
81627;SDS011;71036;51.102;6.514;2024-03-22T01:37:27;33.57;;;12.50;;
81627;SDS011;71036;51.102;6.514;2024-03-22T01:39:52;34.23;;;13.60;;
81627;SDS011;71036;51.102;6.514;2024-03-22T01:42:18;39.37;;;13.03;;
81627;SDS011;71036;51.102;6.514;2024-03-22T01:44:43;37.00;;;12.30;;
81627;SDS011;71036;51.102;6.514;2024-03-22T01:47:08;27.57;;;11.80;;
81627;SDS011;71036;51.102;6.514;2024-03-22T01:49:34;33.50;;;11.30;;
81627;SDS011;71036;51.102;6.514;2024-03-22T01:52:00;41.70;;;15.43;;
81627;SDS011;71036;51.102;6.514;2024-03-22T01:54:25;29.97;;;12.53;;
81627;SDS011;71036;51.102;6.514;2024-03-22T01:56:50;30.30;;;10.80;;
81627;SDS011;71036;51.102;6.514;2024-03-22T01:59:16;32.43;;;12.40;;
81627;SDS011;71036;51.102;6.514;2024-03-22T02:01:42;32.97;;;12.43;;
81627;SDS011;71036;51.102;6.514;2024-03-22T02:04:07;33.37;;;11.63;;
81627;SDS011;71036;51.102;6.514;2024-03-22T02:06:33;29.53;;;11.23;;
81627;SDS011;71036;51.102;6.514;2024-03-22T02:08:58;32.67;;;13.20;;
81627;SDS011;71036;51.102;6.514;2024-03-22T02:11:25;32.20;;;12.70;;
81627;SDS011;71036;51.102;6.514;2024-03-22T02:13:50;30.43;;;13.90;;
81627;SDS011;71036;51.102;6.514;2024-03-22T02:16:16;34.33;;;12.90;;
81627;SDS011;71036;51.102;6.514;2024-03-22T02:18:41;31.93;;;10.90;;
81627;SDS011;71036;51.102;6.514;2024-03-22T02:21:07;37.87;;;12.90;;
81627;SDS011;71036;51.102;6.514;2024-03-22T02:23:36;27.07;;;11.80;;
81627;SDS011;71036;51.102;6.514;2024-03-22T02:26:03;28.27;;;12.47;;
81627;SDS011;71036;51.102;6.514;2024-03-22T02:28:29;32.77;;;11.20;;
81627;SDS011;71036;51.102;6.514;2024-03-22T02:30:55;38.23;;;11.80;;
81627;SDS011;71036;51.102;6.514;2024-03-22T02:33:20;38.27;;;12.80;;
81627;SDS011;71036;51.102;6.514;2024-03-22T02:35:46;30.10;;;11.77;;
81627;SDS011;71036;51.102;6.514;2024-03-22T02:38:12;29.67;;;10.67;;
81627;SDS011;71036;51.102;6.514;2024-03-22T02:40:37;38.37;;;13.60;;
81627;SDS011;71036;51.102;6.514;2024-03-22T02:43:02;40.47;;;12.63;;
81627;SDS011;71036;51.102;6.514;2024-03-22T02:45:28;31.17;;;11.23;;
81627;SDS011;71036;51.102;6.514;2024-03-22T02:47:55;30.80;;;12.53;;
81627;SDS011;71036;51.102;6.514;2024-03-22T02:50:20;31.53;;;13.00;;
81627;SDS011;71036;51.102;6.514;2024-03-22T02:52:46;31.27;;;13.90;;
81627;SDS011;71036;51.102;6.514;2024-03-22T02:55:12;35.57;;;12.93;;
81627;SDS011;71036;51.102;6.514;2024-03-22T02:57:38;32.77;;;11.27;;
81627;SDS011;71036;51.102;6.514;2024-03-22T03:00:03;31.10;;;13.83;;
81627;SDS011;71036;51.102;6.514;2024-03-22T03:02:30;41.43;;;14.13;;
81627;SDS011;71036;51.102;6.514;2024-03-22T03:04:55;31.30;;;12.80;;
81627;SDS011;71036;51.102;6.514;2024-03-22T03:07:20;35.67;;;13.67;;
81627;SDS011;71036;51.102;6.514;2024-03-22T03:09:45;30.17;;;13.13;;
81627;SDS011;71036;51.102;6.514;2024-03-22T03:12:11;31.73;;;13.13;;
81627;SDS011;71036;51.102;6.514;2024-03-22T03:14:36;34.23;;;14.47;;
81627;SDS011;71036;51.102;6.514;2024-03-22T03:17:01;37.33;;;13.10;;
81627;SDS011;71036;51.102;6.514;2024-03-22T03:19:27;36.07;;;13.47;;
81627;SDS011;71036;51.102;6.514;2024-03-22T03:21:52;31.03;;;14.37;;
81627;SDS011;71036;51.102;6.514;2024-03-22T03:24:18;37.67;;;14.10;;
81627;SDS011;71036;51.102;6.514;2024-03-22T03:26:43;35.57;;;14.13;;
81627;SDS011;71036;51.102;6.514;2024-03-22T03:29:08;34.43;;;14.93;;
81627;SDS011;71036;51.102;6.514;2024-03-22T03:31:34;39.83;;;16.47;;
81627;SDS011;71036;51.102;6.514;2024-03-22T03:33:59;34.07;;;13.93;;
81627;SDS011;71036;51.102;6.514;2024-03-22T03:36:24;33.47;;;13.63;;
81627;SDS011;71036;51.102;6.514;2024-03-22T03:38:49;40.47;;;15.20;;
81627;SDS011;71036;51.102;6.514;2024-03-22T03:41:15;40.37;;;14.80;;
81627;SDS011;71036;51.102;6.514;2024-03-22T03:43:40;37.77;;;16.53;;
81627;SDS011;71036;51.102;6.514;2024-03-22T03:46:05;42.40;;;15.23;;
81627;SDS011;71036;51.102;6.514;2024-03-22T03:48:30;31.83;;;13.40;;
81627;SDS011;71036;51.102;6.514;2024-03-22T03:50:56;35.20;;;14.33;;
81627;SDS011;71036;51.102;6.514;2024-03-22T03:53:24;40.90;;;16.10;;
81627;SDS011;71036;51.102;6.514;2024-03-22T03:55:50;40.80;;;15.27;;
81627;SDS011;71036;51.102;6.514;2024-03-22T03:58:15;45.17;;;14.40;;
81627;SDS011;71036;51.102;6.514;2024-03-22T04:00:42;40.23;;;14.00;;
81627;SDS011;71036;51.102;6.514;2024-03-22T04:03:08;35.97;;;16.23;;
81627;SDS011;71036;51.102;6.514;2024-03-22T04:05:33;34.50;;;16.03;;
81627;SDS011;71036;51.102;6.514;2024-03-22T04:07:58;40.93;;;15.60;;
81627;SDS011;71036;51.102;6.514;2024-03-22T04:10:24;39.93;;;14.30;;
81627;SDS011;71036;51.102;6.514;2024-03-22T04:12:49;34.53;;;14.73;;
81627;SDS011;71036;51.102;6.514;2024-03-22T04:15:14;27.83;;;13.70;;
81627;SDS011;71036;51.102;6.514;2024-03-22T04:17:40;49.83;;;15.80;;
81627;SDS011;71036;51.102;6.514;2024-03-22T04:20:05;42.90;;;14.27;;
81627;SDS011;71036;51.102;6.514;2024-03-22T04:22:31;30.87;;;13.20;;
81627;SDS011;71036;51.102;6.514;2024-03-22T04:24:57;35.60;;;13.67;;
81627;SDS011;71036;51.102;6.514;2024-03-22T04:27:22;29.37;;;14.93;;
81627;SDS011;71036;51.102;6.514;2024-03-22T04:29:47;26.13;;;12.63;;
81627;SDS011;71036;51.102;6.514;2024-03-22T04:32:13;32.80;;;12.40;;
81627;SDS011;71036;51.102;6.514;2024-03-22T04:34:41;28.17;;;13.47;;
81627;SDS011;71036;51.102;6.514;2024-03-22T04:37:08;33.03;;;12.43;;
81627;SDS011;71036;51.102;6.514;2024-03-22T04:39:34;30.33;;;13.37;;
81627;SDS011;71036;51.102;6.514;2024-03-22T04:41:59;30.43;;;12.70;;
81627;SDS011;71036;51.102;6.514;2024-03-22T04:44:24;26.80;;;12.23;;
81627;SDS011;71036;51.102;6.514;2024-03-22T04:46:50;26.03;;;11.10;;
81627;SDS011;71036;51.102;6.514;2024-03-22T04:49:15;32.47;;;13.57;;
81627;SDS011;71036;51.102;6.514;2024-03-22T04:51:40;25.97;;;11.87;;
81627;SDS011;71036;51.102;6.514;2024-03-22T04:54:06;29.03;;;11.47;;
81627;SDS011;71036;51.102;6.514;2024-03-22T04:56:31;25.80;;;10.93;;
81627;SDS011;71036;51.102;6.514;2024-03-22T04:58:57;27.13;;;12.33;;
81627;SDS011;71036;51.102;6.514;2024-03-22T05:01:22;23.80;;;10.37;;
81627;SDS011;71036;51.102;6.514;2024-03-22T05:03:48;19.40;;;10.60;;
81627;SDS011;71036;51.102;6.514;2024-03-22T05:06:14;30.50;;;11.00;;
81627;SDS011;71036;51.102;6.514;2024-03-22T05:08:39;23.23;;;11.23;;
81627;SDS011;71036;51.102;6.514;2024-03-22T05:11:06;24.70;;;11.43;;
81627;SDS011;71036;51.102;6.514;2024-03-22T05:13:32;21.93;;;10.93;;
81627;SDS011;71036;51.102;6.514;2024-03-22T05:15:57;26.20;;;11.03;;
81627;SDS011;71036;51.102;6.514;2024-03-22T05:18:23;24.77;;;10.50;;
81627;SDS011;71036;51.102;6.514;2024-03-22T05:20:48;29.27;;;11.47;;
81627;SDS011;71036;51.102;6.514;2024-03-22T05:23:13;24.07;;;10.00;;
81627;SDS011;71036;51.102;6.514;2024-03-22T05:25:41;23.60;;;11.03;;
81627;SDS011;71036;51.102;6.514;2024-03-22T05:28:07;19.83;;;10.50;;
81627;SDS011;71036;51.102;6.514;2024-03-22T05:30:32;25.80;;;12.67;;
81627;SDS011;71036;51.102;6.514;2024-03-22T05:32:57;25.60;;;10.80;;
81627;SDS011;71036;51.102;6.514;2024-03-22T05:35:23;26.67;;;11.97;;
81627;SDS011;71036;51.102;6.514;2024-03-22T05:37:48;24.93;;;11.00;;
81627;SDS011;71036;51.102;6.514;2024-03-22T05:40:14;21.03;;;10.87;;
81627;SDS011;71036;51.102;6.514;2024-03-22T05:42:40;21.17;;;10.20;;
81627;SDS011;71036;51.102;6.514;2024-03-22T05:45:06;21.67;;;11.63;;
81627;SDS011;71036;51.102;6.514;2024-03-22T05:47:31;28.83;;;11.90;;
81627;SDS011;71036;51.102;6.514;2024-03-22T05:49:57;21.57;;;11.63;;
81627;SDS011;71036;51.102;6.514;2024-03-22T05:52:23;24.73;;;11.10;;
81627;SDS011;71036;51.102;6.514;2024-03-22T05:54:48;26.07;;;12.63;;
81627;SDS011;71036;51.102;6.514;2024-03-22T05:57:14;21.87;;;10.20;;
81627;SDS011;71036;51.102;6.514;2024-03-22T05:59:39;23.90;;;11.67;;
81627;SDS011;71036;51.102;6.514;2024-03-22T06:02:05;25.77;;;12.93;;
81627;SDS011;71036;51.102;6.514;2024-03-22T06:04:30;29.27;;;12.80;;
81627;SDS011;71036;51.102;6.514;2024-03-22T06:06:56;35.60;;;12.57;;
81627;SDS011;71036;51.102;6.514;2024-03-22T06:09:24;27.20;;;12.43;;
81627;SDS011;71036;51.102;6.514;2024-03-22T06:11:59;23.87;;;12.53;;
81627;SDS011;71036;51.102;6.514;2024-03-22T06:14:25;23.43;;;11.80;;
81627;SDS011;71036;51.102;6.514;2024-03-22T06:16:50;28.10;;;12.97;;
81627;SDS011;71036;51.102;6.514;2024-03-22T06:19:15;26.30;;;12.27;;
81627;SDS011;71036;51.102;6.514;2024-03-22T06:21:40;28.10;;;13.37;;
81627;SDS011;71036;51.102;6.514;2024-03-22T06:24:06;32.50;;;13.17;;
81627;SDS011;71036;51.102;6.514;2024-03-22T06:26:31;33.30;;;14.77;;
81627;SDS011;71036;51.102;6.514;2024-03-22T06:28:56;32.40;;;12.87;;
81627;SDS011;71036;51.102;6.514;2024-03-22T06:31:22;37.50;;;14.40;;
81627;SDS011;71036;51.102;6.514;2024-03-22T06:33:47;32.47;;;14.03;;
81627;SDS011;71036;51.102;6.514;2024-03-22T06:36:12;38.03;;;15.33;;
81627;SDS011;71036;51.102;6.514;2024-03-22T06:38:38;33.37;;;15.83;;
81627;SDS011;71036;51.102;6.514;2024-03-22T06:41:03;33.07;;;15.20;;
81627;SDS011;71036;51.102;6.514;2024-03-22T06:43:29;37.53;;;14.67;;
81627;SDS011;71036;51.102;6.514;2024-03-22T06:45:54;32.70;;;14.70;;
81627;SDS011;71036;51.102;6.514;2024-03-22T06:48:19;34.30;;;15.30;;
81627;SDS011;71036;51.102;6.514;2024-03-22T06:50:45;34.63;;;15.70;;
81627;SDS011;71036;51.102;6.514;2024-03-22T06:53:11;33.03;;;14.90;;
81627;SDS011;71036;51.102;6.514;2024-03-22T06:55:36;37.47;;;15.63;;
81627;SDS011;71036;51.102;6.514;2024-03-22T06:58:02;40.07;;;16.73;;
81627;SDS011;71036;51.102;6.514;2024-03-22T07:00:27;34.00;;;16.30;;
81627;SDS011;71036;51.102;6.514;2024-03-22T07:02:53;35.40;;;16.30;;
81627;SDS011;71036;51.102;6.514;2024-03-22T07:05:20;38.50;;;16.73;;
81627;SDS011;71036;51.102;6.514;2024-03-22T07:07:46;45.33;;;18.37;;
81627;SDS011;71036;51.102;6.514;2024-03-22T07:10:12;35.70;;;18.40;;
81627;SDS011;71036;51.102;6.514;2024-03-22T07:12:37;43.47;;;16.40;;
81627;SDS011;71036;51.102;6.514;2024-03-22T07:15:03;33.60;;;14.90;;
81627;SDS011;71036;51.102;6.514;2024-03-22T07:17:29;47.50;;;16.67;;
81627;SDS011;71036;51.102;6.514;2024-03-22T07:19:54;33.23;;;16.97;;
81627;SDS011;71036;51.102;6.514;2024-03-22T07:22:21;39.10;;;16.00;;
81627;SDS011;71036;51.102;6.514;2024-03-22T07:24:47;40.80;;;17.20;;
81627;SDS011;71036;51.102;6.514;2024-03-22T07:27:13;40.53;;;17.07;;
81627;SDS011;71036;51.102;6.514;2024-03-22T07:29:41;37.37;;;17.30;;
81627;SDS011;71036;51.102;6.514;2024-03-22T07:32:07;39.63;;;16.40;;
81627;SDS011;71036;51.102;6.514;2024-03-22T07:34:32;40.30;;;18.13;;
81627;SDS011;71036;51.102;6.514;2024-03-22T07:36:57;50.93;;;17.90;;
81627;SDS011;71036;51.102;6.514;2024-03-22T07:39:23;33.80;;;16.10;;
81627;SDS011;71036;51.102;6.514;2024-03-22T07:41:49;43.60;;;17.80;;
81627;SDS011;71036;51.102;6.514;2024-03-22T07:44:15;40.90;;;16.57;;
81627;SDS011;71036;51.102;6.514;2024-03-22T07:46:42;37.17;;;18.27;;
81627;SDS011;71036;51.102;6.514;2024-03-22T07:49:09;39.67;;;15.87;;
81627;SDS011;71036;51.102;6.514;2024-03-22T07:51:34;34.93;;;17.40;;
81627;SDS011;71036;51.102;6.514;2024-03-22T07:53:59;40.17;;;16.57;;
81627;SDS011;71036;51.102;6.514;2024-03-22T07:56:24;50.57;;;17.60;;
81627;SDS011;71036;51.102;6.514;2024-03-22T07:58:50;40.87;;;16.57;;
81627;SDS011;71036;51.102;6.514;2024-03-22T08:01:15;45.07;;;16.90;;
81627;SDS011;71036;51.102;6.514;2024-03-22T08:03:42;31.43;;;14.60;;
81627;SDS011;71036;51.102;6.514;2024-03-22T08:06:07;39.73;;;15.30;;
81627;SDS011;71036;51.102;6.514;2024-03-22T08:08:33;36.13;;;14.23;;
81627;SDS011;71036;51.102;6.514;2024-03-22T08:10:58;38.23;;;12.67;;
81627;SDS011;71036;51.102;6.514;2024-03-22T08:13:23;35.17;;;15.37;;
81627;SDS011;71036;51.102;6.514;2024-03-22T08:15:49;40.33;;;15.03;;
81627;SDS011;71036;51.102;6.514;2024-03-22T08:18:14;53.93;;;13.40;;
81627;SDS011;71036;51.102;6.514;2024-03-22T08:20:39;29.83;;;13.40;;
81627;SDS011;71036;51.102;6.514;2024-03-22T08:23:05;26.17;;;12.40;;
81627;SDS011;71036;51.102;6.514;2024-03-22T08:25:30;23.43;;;11.90;;
81627;SDS011;71036;51.102;6.514;2024-03-22T08:27:56;24.13;;;12.63;;
81627;SDS011;71036;51.102;6.514;2024-03-22T08:30:23;30.73;;;12.50;;
81627;SDS011;71036;51.102;6.514;2024-03-22T08:32:48;26.17;;;11.80;;
81627;SDS011;71036;51.102;6.514;2024-03-22T08:35:14;30.27;;;11.93;;
81627;SDS011;71036;51.102;6.514;2024-03-22T08:37:40;32.43;;;10.93;;
81627;SDS011;71036;51.102;6.514;2024-03-22T08:40:05;26.77;;;10.83;;
81627;SDS011;71036;51.102;6.514;2024-03-22T08:42:32;22.27;;;12.30;;
81627;SDS011;71036;51.102;6.514;2024-03-22T08:44:57;30.07;;;11.67;;
81627;SDS011;71036;51.102;6.514;2024-03-22T08:47:23;22.80;;;11.83;;
81627;SDS011;71036;51.102;6.514;2024-03-22T08:49:48;28.80;;;11.87;;
81627;SDS011;71036;51.102;6.514;2024-03-22T08:52:14;24.33;;;10.50;;
81627;SDS011;71036;51.102;6.514;2024-03-22T08:54:40;24.87;;;10.60;;
81627;SDS011;71036;51.102;6.514;2024-03-22T08:57:05;28.30;;;11.50;;
81627;SDS011;71036;51.102;6.514;2024-03-22T08:59:30;27.60;;;11.10;;
81627;SDS011;71036;51.102;6.514;2024-03-22T09:01:55;24.27;;;9.60;;
81627;SDS011;71036;51.102;6.514;2024-03-22T09:04:21;20.80;;;9.33;;
81627;SDS011;71036;51.102;6.514;2024-03-22T09:06:46;22.30;;;10.87;;
81627;SDS011;71036;51.102;6.514;2024-03-22T09:09:12;28.03;;;10.80;;
81627;SDS011;71036;51.102;6.514;2024-03-22T09:11:37;28.97;;;10.93;;
81627;SDS011;71036;51.102;6.514;2024-03-22T09:14:03;17.70;;;9.90;;
81627;SDS011;71036;51.102;6.514;2024-03-22T09:16:29;21.57;;;10.80;;
81627;SDS011;71036;51.102;6.514;2024-03-22T09:18:55;27.80;;;11.50;;
81627;SDS011;71036;51.102;6.514;2024-03-22T09:21:20;21.97;;;11.10;;
81627;SDS011;71036;51.102;6.514;2024-03-22T09:23:46;30.07;;;11.80;;
81627;SDS011;71036;51.102;6.514;2024-03-22T09:26:11;21.93;;;11.10;;
81627;SDS011;71036;51.102;6.514;2024-03-22T09:28:37;25.13;;;11.90;;
81627;SDS011;71036;51.102;6.514;2024-03-22T09:31:05;34.83;;;11.67;;
81627;SDS011;71036;51.102;6.514;2024-03-22T09:33:34;32.07;;;11.47;;
81627;SDS011;71036;51.102;6.514;2024-03-22T09:36:00;26.33;;;11.63;;
81627;SDS011;71036;51.102;6.514;2024-03-22T09:38:26;23.37;;;10.60;;
81627;SDS011;71036;51.102;6.514;2024-03-22T09:40:51;27.97;;;11.17;;
81627;SDS011;71036;51.102;6.514;2024-03-22T09:43:19;22.80;;;10.87;;
81627;SDS011;71036;51.102;6.514;2024-03-22T09:45:48;28.40;;;10.23;;
81627;SDS011;71036;51.102;6.514;2024-03-22T09:48:19;26.03;;;10.00;;
81627;SDS011;71036;51.102;6.514;2024-03-22T09:50:48;23.80;;;11.23;;
81627;SDS011;71036;51.102;6.514;2024-03-22T09:53:20;26.90;;;10.60;;
81627;SDS011;71036;51.102;6.514;2024-03-22T09:55:50;30.77;;;12.47;;
81627;SDS011;71036;51.102;6.514;2024-03-22T09:58:17;26.30;;;11.33;;
81627;SDS011;71036;51.102;6.514;2024-03-22T10:00:42;26.63;;;11.77;;
81627;SDS011;71036;51.102;6.514;2024-03-22T10:03:08;31.13;;;13.10;;
81627;SDS011;71036;51.102;6.514;2024-03-22T10:05:37;25.23;;;12.70;;
81627;SDS011;71036;51.102;6.514;2024-03-22T10:08:03;26.87;;;12.17;;
81627;SDS011;71036;51.102;6.514;2024-03-22T10:10:30;39.50;;;11.20;;
81627;SDS011;71036;51.102;6.514;2024-03-22T10:12:56;34.40;;;13.57;;
81627;SDS011;71036;51.102;6.514;2024-03-22T10:15:23;28.47;;;11.03;;
81627;SDS011;71036;51.102;6.514;2024-03-22T10:17:48;29.00;;;11.27;;
81627;SDS011;71036;51.102;6.514;2024-03-22T10:20:14;34.27;;;11.80;;
81627;SDS011;71036;51.102;6.514;2024-03-22T10:22:43;24.13;;;12.03;;
81627;SDS011;71036;51.102;6.514;2024-03-22T10:25:09;23.97;;;11.20;;
81627;SDS011;71036;51.102;6.514;2024-03-22T10:27:37;34.13;;;12.50;;
81627;SDS011;71036;51.102;6.514;2024-03-22T10:30:05;29.00;;;13.20;;
81627;SDS011;71036;51.102;6.514;2024-03-22T10:32:33;32.67;;;11.80;;
81627;SDS011;71036;51.102;6.514;2024-03-22T10:35:00;24.73;;;11.57;;
81627;SDS011;71036;51.102;6.514;2024-03-22T10:37:29;28.30;;;12.50;;
81627;SDS011;71036;51.102;6.514;2024-03-22T10:39:56;24.07;;;11.77;;
81627;SDS011;71036;51.102;6.514;2024-03-22T10:42:23;20.20;;;11.10;;
81627;SDS011;71036;51.102;6.514;2024-03-22T10:44:48;24.80;;;10.80;;
81627;SDS011;71036;51.102;6.514;2024-03-22T10:47:14;19.27;;;10.43;;
81627;SDS011;71036;51.102;6.514;2024-03-22T10:49:43;24.40;;;11.17;;
81627;SDS011;71036;51.102;6.514;2024-03-22T10:52:11;21.57;;;10.90;;
81627;SDS011;71036;51.102;6.514;2024-03-22T10:54:39;29.00;;;11.67;;
81627;SDS011;71036;51.102;6.514;2024-03-22T10:57:11;23.13;;;10.13;;
81627;SDS011;71036;51.102;6.514;2024-03-22T10:59:40;28.87;;;11.87;;
81627;SDS011;71036;51.102;6.514;2024-03-22T11:02:06;19.80;;;10.47;;
81627;SDS011;71036;51.102;6.514;2024-03-22T11:04:32;30.07;;;11.00;;
81627;SDS011;71036;51.102;6.514;2024-03-22T11:06:58;20.00;;;9.67;;
81627;SDS011;71036;51.102;6.514;2024-03-22T11:09:24;21.83;;;10.37;;
81627;SDS011;71036;51.102;6.514;2024-03-22T11:11:51;20.10;;;10.60;;
81627;SDS011;71036;51.102;6.514;2024-03-22T11:14:17;19.60;;;11.40;;
81627;SDS011;71036;51.102;6.514;2024-03-22T11:16:49;28.93;;;12.90;;
81627;SDS011;71036;51.102;6.514;2024-03-22T11:19:14;23.20;;;11.17;;
81627;SDS011;71036;51.102;6.514;2024-03-22T11:21:39;20.60;;;10.77;;
81627;SDS011;71036;51.102;6.514;2024-03-22T11:24:05;19.00;;;10.40;;
81627;SDS011;71036;51.102;6.514;2024-03-22T11:26:31;27.77;;;10.97;;
81627;SDS011;71036;51.102;6.514;2024-03-22T11:28:56;26.13;;;10.33;;
81627;SDS011;71036;51.102;6.514;2024-03-22T11:31:22;29.20;;;11.40;;
81627;SDS011;71036;51.102;6.514;2024-03-22T11:33:52;26.53;;;11.57;;
81627;SDS011;71036;51.102;6.514;2024-03-22T11:36:18;23.80;;;10.43;;
81627;SDS011;71036;51.102;6.514;2024-03-22T11:38:43;27.30;;;12.50;;
81627;SDS011;71036;51.102;6.514;2024-03-22T11:41:08;22.87;;;11.53;;
81627;SDS011;71036;51.102;6.514;2024-03-22T11:43:34;23.10;;;11.57;;
81627;SDS011;71036;51.102;6.514;2024-03-22T11:46:00;23.03;;;12.10;;
81627;SDS011;71036;51.102;6.514;2024-03-22T11:48:26;22.10;;;11.50;;
81627;SDS011;71036;51.102;6.514;2024-03-22T11:50:52;25.20;;;12.87;;
81627;SDS011;71036;51.102;6.514;2024-03-22T11:53:17;24.90;;;10.93;;
81627;SDS011;71036;51.102;6.514;2024-03-22T11:55:43;19.60;;;9.50;;
81627;SDS011;71036;51.102;6.514;2024-03-22T11:58:11;20.80;;;9.20;;
81627;SDS011;71036;51.102;6.514;2024-03-22T12:00:37;16.90;;;9.43;;
81627;SDS011;71036;51.102;6.514;2024-03-22T12:03:05;18.40;;;9.17;;
81627;SDS011;71036;51.102;6.514;2024-03-22T12:05:31;18.30;;;10.20;;
81627;SDS011;71036;51.102;6.514;2024-03-22T12:07:57;21.20;;;9.90;;
81627;SDS011;71036;51.102;6.514;2024-03-22T12:10:22;20.90;;;8.87;;
81627;SDS011;71036;51.102;6.514;2024-03-22T12:12:47;17.57;;;9.77;;
81627;SDS011;71036;51.102;6.514;2024-03-22T12:15:12;27.90;;;11.10;;
81627;SDS011;71036;51.102;6.514;2024-03-22T12:17:38;16.53;;;9.60;;
81627;SDS011;71036;51.102;6.514;2024-03-22T12:20:05;20.50;;;9.60;;
81627;SDS011;71036;51.102;6.514;2024-03-22T12:22:33;21.73;;;9.60;;
81627;SDS011;71036;51.102;6.514;2024-03-22T12:24:59;19.80;;;10.00;;
81627;SDS011;71036;51.102;6.514;2024-03-22T12:27:24;20.17;;;9.80;;
81627;SDS011;71036;51.102;6.514;2024-03-22T12:29:49;22.93;;;11.10;;
81627;SDS011;71036;51.102;6.514;2024-03-22T12:32:15;43.87;;;11.30;;
81627;SDS011;71036;51.102;6.514;2024-03-22T12:34:40;21.20;;;10.13;;
81627;SDS011;71036;51.102;6.514;2024-03-22T12:37:05;21.80;;;10.63;;
81627;SDS011;71036;51.102;6.514;2024-03-22T12:39:31;23.33;;;11.43;;
81627;SDS011;71036;51.102;6.514;2024-03-22T12:41:57;23.43;;;10.50;;
81627;SDS011;71036;51.102;6.514;2024-03-22T12:44:22;23.33;;;10.90;;
81627;SDS011;71036;51.102;6.514;2024-03-22T12:46:48;25.43;;;12.37;;
81627;SDS011;71036;51.102;6.514;2024-03-22T12:49:14;23.80;;;9.93;;
81627;SDS011;71036;51.102;6.514;2024-03-22T12:51:39;20.67;;;10.07;;
81627;SDS011;71036;51.102;6.514;2024-03-22T12:54:04;24.67;;;10.47;;
81627;SDS011;71036;51.102;6.514;2024-03-22T12:56:30;19.37;;;8.63;;
81627;SDS011;71036;51.102;6.514;2024-03-22T12:58:56;18.23;;;9.70;;
81627;SDS011;71036;51.102;6.514;2024-03-22T13:01:21;26.77;;;11.03;;
81627;SDS011;71036;51.102;6.514;2024-03-22T13:03:46;21.50;;;9.30;;
81627;SDS011;71036;51.102;6.514;2024-03-22T13:06:12;20.70;;;9.40;;
81627;SDS011;71036;51.102;6.514;2024-03-22T13:08:38;20.63;;;10.10;;
81627;SDS011;71036;51.102;6.514;2024-03-22T13:11:03;17.60;;;9.40;;
81627;SDS011;71036;51.102;6.514;2024-03-22T13:13:29;20.23;;;7.97;;
81627;SDS011;71036;51.102;6.514;2024-03-22T13:15:56;18.37;;;8.97;;
81627;SDS011;71036;51.102;6.514;2024-03-22T13:18:21;23.33;;;7.80;;
81627;SDS011;71036;51.102;6.514;2024-03-22T13:20:47;14.37;;;7.50;;
81627;SDS011;71036;51.102;6.514;2024-03-22T13:23:12;14.03;;;7.67;;
81627;SDS011;71036;51.102;6.514;2024-03-22T13:25:38;18.00;;;7.30;;
81627;SDS011;71036;51.102;6.514;2024-03-22T13:28:03;14.30;;;7.03;;
81627;SDS011;71036;51.102;6.514;2024-03-22T13:30:30;16.07;;;8.37;;
81627;SDS011;71036;51.102;6.514;2024-03-22T13:32:55;15.53;;;7.33;;
81627;SDS011;71036;51.102;6.514;2024-03-22T13:35:21;12.80;;;7.60;;
81627;SDS011;71036;51.102;6.514;2024-03-22T13:37:46;13.13;;;6.37;;
81627;SDS011;71036;51.102;6.514;2024-03-22T13:40:12;16.53;;;7.73;;
81627;SDS011;71036;51.102;6.514;2024-03-22T13:42:37;19.33;;;8.00;;
81627;SDS011;71036;51.102;6.514;2024-03-22T13:45:02;17.93;;;8.03;;
81627;SDS011;71036;51.102;6.514;2024-03-22T13:47:28;18.17;;;8.83;;
81627;SDS011;71036;51.102;6.514;2024-03-22T13:49:53;18.70;;;8.50;;
81627;SDS011;71036;51.102;6.514;2024-03-22T13:52:19;21.83;;;8.43;;
81627;SDS011;71036;51.102;6.514;2024-03-22T13:54:45;25.00;;;8.93;;
81627;SDS011;71036;51.102;6.514;2024-03-22T13:57:11;19.27;;;9.00;;
81627;SDS011;71036;51.102;6.514;2024-03-22T13:59:36;17.33;;;7.67;;
81627;SDS011;71036;51.102;6.514;2024-03-22T14:02:02;18.10;;;7.90;;
81627;SDS011;71036;51.102;6.514;2024-03-22T14:04:28;15.30;;;7.80;;
81627;SDS011;71036;51.102;6.514;2024-03-22T14:06:54;16.00;;;8.40;;
81627;SDS011;71036;51.102;6.514;2024-03-22T14:09:19;17.17;;;8.50;;
81627;SDS011;71036;51.102;6.514;2024-03-22T14:11:44;20.93;;;9.37;;
81627;SDS011;71036;51.102;6.514;2024-03-22T14:14:12;15.73;;;8.53;;